sensor_id;sensor_type;location;lat;lon;timestamp;temperature;humidity
7876;DHT22;69649;53.712;9.680;2023-05-09T00:01:24;13.00;47.50
7876;DHT22;69649;53.712;9.680;2023-05-09T00:03:52;13.00;47.70
7876;DHT22;69649;53.712;9.680;2023-05-09T00:06:17;13.00;47.60
7876;DHT22;69649;53.712;9.680;2023-05-09T00:08:44;12.90;47.70
7876;DHT22;69649;53.712;9.680;2023-05-09T00:11:09;12.90;47.80
7876;DHT22;69649;53.712;9.680;2023-05-09T00:13:35;12.90;47.60
7876;DHT22;69649;53.712;9.680;2023-05-09T00:16:02;12.90;47.80
7876;DHT22;69649;53.712;9.680;2023-05-09T00:18:28;12.80;48.00
7876;DHT22;69649;53.712;9.680;2023-05-09T00:20:55;12.80;48.00
7876;DHT22;69649;53.712;9.680;2023-05-09T00:23:22;12.70;47.90
7876;DHT22;69649;53.712;9.680;2023-05-09T00:25:48;12.70;48.00
7876;DHT22;69649;53.712;9.680;2023-05-09T00:28:13;12.60;48.20
7876;DHT22;69649;53.712;9.680;2023-05-09T00:30:39;12.50;48.40
7876;DHT22;69649;53.712;9.680;2023-05-09T00:33:05;12.50;48.50
7876;DHT22;69649;53.712;9.680;2023-05-09T00:35:31;12.50;48.50
7876;DHT22;69649;53.712;9.680;2023-05-09T00:37:56;12.50;48.60
7876;DHT22;69649;53.712;9.680;2023-05-09T00:40:22;12.50;48.50
7876;DHT22;69649;53.712;9.680;2023-05-09T00:42:48;12.50;48.70
7876;DHT22;69649;53.712;9.680;2023-05-09T00:45:14;12.50;48.70
7876;DHT22;69649;53.712;9.680;2023-05-09T00:47:40;12.50;48.80
7876;DHT22;69649;53.712;9.680;2023-05-09T00:50:06;12.50;48.80
7876;DHT22;69649;53.712;9.680;2023-05-09T00:52:33;12.50;48.70
7876;DHT22;69649;53.712;9.680;2023-05-09T00:54:59;12.40;48.80
7876;DHT22;69649;53.712;9.680;2023-05-09T00:57:25;12.30;48.90
7876;DHT22;69649;53.712;9.680;2023-05-09T00:59:50;12.30;48.80
7876;DHT22;69649;53.712;9.680;2023-05-09T01:02:17;12.20;49.00
7876;DHT22;69649;53.712;9.680;2023-05-09T01:04:44;12.20;49.10
7876;DHT22;69649;53.712;9.680;2023-05-09T01:07:21;12.20;49.10
7876;DHT22;69649;53.712;9.680;2023-05-09T01:12:48;12.20;49.20
7876;DHT22;69649;53.712;9.680;2023-05-09T01:20:42;12.00;49.30
7876;DHT22;69649;53.712;9.680;2023-05-09T01:23:46;12.10;49.20
7876;DHT22;69649;53.712;9.680;2023-05-09T01:31:48;11.90;49.40
7876;DHT22;69649;53.712;9.680;2023-05-09T01:34:16;11.90;49.70
7876;DHT22;69649;53.712;9.680;2023-05-09T01:36:43;11.80;49.70
7876;DHT22;69649;53.712;9.680;2023-05-09T01:39:12;11.90;49.90
7876;DHT22;69649;53.712;9.680;2023-05-09T01:41:39;11.90;49.80
7876;DHT22;69649;53.712;9.680;2023-05-09T01:44:07;11.90;49.90
7876;DHT22;69649;53.712;9.680;2023-05-09T01:46:35;11.80;50.10
7876;DHT22;69649;53.712;9.680;2023-05-09T01:49:02;11.90;50.00
7876;DHT22;69649;53.712;9.680;2023-05-09T01:51:30;11.90;49.80
7876;DHT22;69649;53.712;9.680;2023-05-09T01:53:58;11.90;49.90
7876;DHT22;69649;53.712;9.680;2023-05-09T01:56:26;11.90;49.90
7876;DHT22;69649;53.712;9.680;2023-05-09T01:58:54;11.80;50.00
7876;DHT22;69649;53.712;9.680;2023-05-09T02:01:20;11.70;50.20
7876;DHT22;69649;53.712;9.680;2023-05-09T02:03:49;11.70;50.30
7876;DHT22;69649;53.712;9.680;2023-05-09T02:06:19;11.70;50.60
7876;DHT22;69649;53.712;9.680;2023-05-09T02:08:46;11.60;50.50
7876;DHT22;69649;53.712;9.680;2023-05-09T02:11:12;11.50;50.70
7876;DHT22;69649;53.712;9.680;2023-05-09T02:13:38;11.50;50.70
7876;DHT22;69649;53.712;9.680;2023-05-09T02:16:05;11.60;51.00
7876;DHT22;69649;53.712;9.680;2023-05-09T02:18:33;11.70;50.70
7876;DHT22;69649;53.712;9.680;2023-05-09T02:20:59;11.60;51.00
7876;DHT22;69649;53.712;9.680;2023-05-09T02:23:25;11.50;51.00
7876;DHT22;69649;53.712;9.680;2023-05-09T02:25:51;11.50;51.10
7876;DHT22;69649;53.712;9.680;2023-05-09T02:28:20;11.50;51.10
7876;DHT22;69649;53.712;9.680;2023-05-09T02:30:48;11.50;51.20
7876;DHT22;69649;53.712;9.680;2023-05-09T02:33:14;11.40;51.40
7876;DHT22;69649;53.712;9.680;2023-05-09T02:35:42;11.40;51.50
7876;DHT22;69649;53.712;9.680;2023-05-09T02:38:08;11.40;51.60
7876;DHT22;69649;53.712;9.680;2023-05-09T02:40:34;11.40;51.50
7876;DHT22;69649;53.712;9.680;2023-05-09T02:43:01;11.30;51.70
7876;DHT22;69649;53.712;9.680;2023-05-09T02:45:26;11.30;51.40
7876;DHT22;69649;53.712;9.680;2023-05-09T02:47:52;11.30;51.80
7876;DHT22;69649;53.712;9.680;2023-05-09T02:50:18;11.20;51.80
7876;DHT22;69649;53.712;9.680;2023-05-09T02:52:44;11.10;52.00
7876;DHT22;69649;53.712;9.680;2023-05-09T02:55:10;11.20;51.90
7876;DHT22;69649;53.712;9.680;2023-05-09T02:57:36;11.10;52.30
7876;DHT22;69649;53.712;9.680;2023-05-09T03:00:03;11.10;52.20
7876;DHT22;69649;53.712;9.680;2023-05-09T03:02:31;11.10;52.50
7876;DHT22;69649;53.712;9.680;2023-05-09T03:04:57;11.00;52.50
7876;DHT22;69649;53.712;9.680;2023-05-09T03:07:23;11.00;52.50
7876;DHT22;69649;53.712;9.680;2023-05-09T03:09:48;11.10;52.30
7876;DHT22;69649;53.712;9.680;2023-05-09T03:12:14;11.10;52.60
7876;DHT22;69649;53.712;9.680;2023-05-09T03:14:40;11.10;52.70
7876;DHT22;69649;53.712;9.680;2023-05-09T03:17:05;11.00;52.50
7876;DHT22;69649;53.712;9.680;2023-05-09T03:19:32;11.00;52.90
7876;DHT22;69649;53.712;9.680;2023-05-09T03:21:58;10.90;52.70
7876;DHT22;69649;53.712;9.680;2023-05-09T03:24:25;10.90;52.90
7876;DHT22;69649;53.712;9.680;2023-05-09T03:26:53;10.80;53.10
7876;DHT22;69649;53.712;9.680;2023-05-09T03:29:18;10.80;53.30
7876;DHT22;69649;53.712;9.680;2023-05-09T03:31:44;10.80;53.30
7876;DHT22;69649;53.712;9.680;2023-05-09T03:34:10;10.80;53.20
7876;DHT22;69649;53.712;9.680;2023-05-09T03:36:38;10.70;53.50
7876;DHT22;69649;53.712;9.680;2023-05-09T03:39:04;10.60;53.60
7876;DHT22;69649;53.712;9.680;2023-05-09T03:41:29;10.60;53.70
7876;DHT22;69649;53.712;9.680;2023-05-09T03:43:55;10.60;53.80
7876;DHT22;69649;53.712;9.680;2023-05-09T03:46:21;10.60;54.00
7876;DHT22;69649;53.712;9.680;2023-05-09T03:48:47;10.50;54.10
7876;DHT22;69649;53.712;9.680;2023-05-09T03:51:13;10.50;54.00
7876;DHT22;69649;53.712;9.680;2023-05-09T03:53:38;10.50;54.20
7876;DHT22;69649;53.712;9.680;2023-05-09T03:56:04;10.50;54.00
7876;DHT22;69649;53.712;9.680;2023-05-09T03:58:30;10.50;54.30
7876;DHT22;69649;53.712;9.680;2023-05-09T04:00:56;10.50;54.30
7876;DHT22;69649;53.712;9.680;2023-05-09T04:03:22;10.50;54.00
7876;DHT22;69649;53.712;9.680;2023-05-09T04:05:48;10.40;54.30
7876;DHT22;69649;53.712;9.680;2023-05-09T04:08:14;10.40;54.60
7876;DHT22;69649;53.712;9.680;2023-05-09T04:10:40;10.40;54.80
7876;DHT22;69649;53.712;9.680;2023-05-09T04:13:06;10.40;54.70
7876;DHT22;69649;53.712;9.680;2023-05-09T04:15:32;10.30;54.50
7876;DHT22;69649;53.712;9.680;2023-05-09T04:17:58;10.40;54.80
7876;DHT22;69649;53.712;9.680;2023-05-09T04:20:23;10.30;55.00
7876;DHT22;69649;53.712;9.680;2023-05-09T04:22:49;10.30;55.00
7876;DHT22;69649;53.712;9.680;2023-05-09T04:25:15;10.30;55.20
7876;DHT22;69649;53.712;9.680;2023-05-09T04:27:41;10.30;55.10
7876;DHT22;69649;53.712;9.680;2023-05-09T04:30:07;10.30;55.10
7876;DHT22;69649;53.712;9.680;2023-05-09T04:32:33;10.30;55.20
7876;DHT22;69649;53.712;9.680;2023-05-09T04:35:00;10.20;55.30
7876;DHT22;69649;53.712;9.680;2023-05-09T04:37:26;10.30;55.30
7876;DHT22;69649;53.712;9.680;2023-05-09T04:39:51;10.30;55.30
7876;DHT22;69649;53.712;9.680;2023-05-09T04:42:17;10.30;55.30
7876;DHT22;69649;53.712;9.680;2023-05-09T04:44:43;10.40;55.20
7876;DHT22;69649;53.712;9.680;2023-05-09T04:47:09;10.40;55.20
7876;DHT22;69649;53.712;9.680;2023-05-09T04:49:34;10.40;55.40
7876;DHT22;69649;53.712;9.680;2023-05-09T04:52:00;10.40;55.30
7876;DHT22;69649;53.712;9.680;2023-05-09T04:54:26;10.40;55.50
7876;DHT22;69649;53.712;9.680;2023-05-09T04:56:52;10.40;55.30
7876;DHT22;69649;53.712;9.680;2023-05-09T04:59:17;10.50;55.20
7876;DHT22;69649;53.712;9.680;2023-05-09T05:01:43;10.60;55.20
7876;DHT22;69649;53.712;9.680;2023-05-09T05:04:09;10.70;55.40
7876;DHT22;69649;53.712;9.680;2023-05-09T05:06:35;10.80;56.40
7876;DHT22;69649;53.712;9.680;2023-05-09T05:09:01;11.10;58.30
7876;DHT22;69649;53.712;9.680;2023-05-09T05:11:27;11.70;56.20
7876;DHT22;69649;53.712;9.680;2023-05-09T05:13:53;11.90;57.10
7876;DHT22;69649;53.712;9.680;2023-05-09T05:16:18;11.70;53.90
7876;DHT22;69649;53.712;9.680;2023-05-09T05:18:44;11.50;54.00
7876;DHT22;69649;53.712;9.680;2023-05-09T05:21:10;11.30;54.30
7876;DHT22;69649;53.712;9.680;2023-05-09T05:23:35;11.10;54.40
7876;DHT22;69649;53.712;9.680;2023-05-09T05:26:01;11.00;54.80
7876;DHT22;69649;53.712;9.680;2023-05-09T05:28:27;11.10;54.80
7876;DHT22;69649;53.712;9.680;2023-05-09T05:30:53;11.10;55.00
7876;DHT22;69649;53.712;9.680;2023-05-09T05:33:18;11.10;55.10
7876;DHT22;69649;53.712;9.680;2023-05-09T05:35:44;11.10;54.70
7876;DHT22;69649;53.712;9.680;2023-05-09T05:38:10;11.20;54.80
7876;DHT22;69649;53.712;9.680;2023-05-09T05:40:35;11.20;55.00
7876;DHT22;69649;53.712;9.680;2023-05-09T05:43:01;11.30;54.70
7876;DHT22;69649;53.712;9.680;2023-05-09T05:45:27;11.30;54.70
7876;DHT22;69649;53.712;9.680;2023-05-09T05:47:54;11.30;54.70
7876;DHT22;69649;53.712;9.680;2023-05-09T05:50:20;11.30;54.70
7876;DHT22;69649;53.712;9.680;2023-05-09T05:52:46;11.50;54.70
7876;DHT22;69649;53.712;9.680;2023-05-09T05:55:12;11.50;54.30
7876;DHT22;69649;53.712;9.680;2023-05-09T05:57:37;11.50;54.30
7876;DHT22;69649;53.712;9.680;2023-05-09T06:00:05;11.60;54.50
7876;DHT22;69649;53.712;9.680;2023-05-09T06:02:33;11.70;54.30
7876;DHT22;69649;53.712;9.680;2023-05-09T06:04:58;11.90;54.00
7876;DHT22;69649;53.712;9.680;2023-05-09T06:07:24;11.90;54.00
7876;DHT22;69649;53.712;9.680;2023-05-09T06:09:50;11.90;54.10
7876;DHT22;69649;53.712;9.680;2023-05-09T06:12:16;11.90;54.00
7876;DHT22;69649;53.712;9.680;2023-05-09T06:14:42;11.90;53.90
7876;DHT22;69649;53.712;9.680;2023-05-09T06:17:08;12.00;54.10
7876;DHT22;69649;53.712;9.680;2023-05-09T06:19:33;12.10;53.70
7876;DHT22;69649;53.712;9.680;2023-05-09T06:22:00;12.10;53.80
7876;DHT22;69649;53.712;9.680;2023-05-09T06:24:26;12.20;53.70
7876;DHT22;69649;53.712;9.680;2023-05-09T06:26:52;12.40;53.70
7876;DHT22;69649;53.712;9.680;2023-05-09T06:29:18;12.50;53.10
7876;DHT22;69649;53.712;9.680;2023-05-09T06:31:44;12.50;53.00
7876;DHT22;69649;53.712;9.680;2023-05-09T06:34:09;12.50;53.30
7876;DHT22;69649;53.712;9.680;2023-05-09T06:36:35;12.60;53.20
7876;DHT22;69649;53.712;9.680;2023-05-09T06:39:01;12.90;52.90
7876;DHT22;69649;53.712;9.680;2023-05-09T06:41:26;13.00;52.80
7876;DHT22;69649;53.712;9.680;2023-05-09T06:43:52;13.10;52.60
7876;DHT22;69649;53.712;9.680;2023-05-09T06:46:18;13.30;52.30
7876;DHT22;69649;53.712;9.680;2023-05-09T06:48:44;13.30;52.20
7876;DHT22;69649;53.712;9.680;2023-05-09T06:51:10;13.20;52.60
7876;DHT22;69649;53.712;9.680;2023-05-09T06:53:36;13.30;52.50
7876;DHT22;69649;53.712;9.680;2023-05-09T06:56:02;13.30;52.20
7876;DHT22;69649;53.712;9.680;2023-05-09T06:58:28;13.40;52.60
7876;DHT22;69649;53.712;9.680;2023-05-09T07:00:54;13.50;52.30
7876;DHT22;69649;53.712;9.680;2023-05-09T07:03:20;13.50;52.40
7876;DHT22;69649;53.712;9.680;2023-05-09T07:05:46;13.60;52.60
7876;DHT22;69649;53.712;9.680;2023-05-09T07:08:12;13.80;52.10
7876;DHT22;69649;53.712;9.680;2023-05-09T07:10:38;13.90;51.90
7876;DHT22;69649;53.712;9.680;2023-05-09T07:13:04;14.00;52.00
7876;DHT22;69649;53.712;9.680;2023-05-09T07:15:30;14.10;51.70
7876;DHT22;69649;53.712;9.680;2023-05-09T07:17:56;14.20;51.70
7876;DHT22;69649;53.712;9.680;2023-05-09T07:20:22;14.30;51.70
7876;DHT22;69649;53.712;9.680;2023-05-09T07:22:47;14.50;51.30
7876;DHT22;69649;53.712;9.680;2023-05-09T07:25:13;14.40;51.40
7876;DHT22;69649;53.712;9.680;2023-05-09T07:27:39;14.50;51.30
7876;DHT22;69649;53.712;9.680;2023-05-09T07:30:06;14.80;51.40
7876;DHT22;69649;53.712;9.680;2023-05-09T07:32:34;15.00;51.10
7876;DHT22;69649;53.712;9.680;2023-05-09T07:35:00;15.00;50.80
7876;DHT22;69649;53.712;9.680;2023-05-09T07:37:26;15.10;50.90
7876;DHT22;69649;53.712;9.680;2023-05-09T07:39:52;15.20;50.80
7876;DHT22;69649;53.712;9.680;2023-05-09T07:42:18;15.30;51.00
7876;DHT22;69649;53.712;9.680;2023-05-09T07:44:43;15.40;51.20
7876;DHT22;69649;53.712;9.680;2023-05-09T07:47:09;15.60;50.80
7876;DHT22;69649;53.712;9.680;2023-05-09T07:49:36;15.60;50.40
7876;DHT22;69649;53.712;9.680;2023-05-09T07:52:02;15.60;50.50
7876;DHT22;69649;53.712;9.680;2023-05-09T07:54:28;15.80;50.60
7876;DHT22;69649;53.712;9.680;2023-05-09T07:56:53;16.00;50.50
7876;DHT22;69649;53.712;9.680;2023-05-09T07:59:19;16.00;50.20
7876;DHT22;69649;53.712;9.680;2023-05-09T08:01:45;16.20;50.10
7876;DHT22;69649;53.712;9.680;2023-05-09T08:04:11;16.30;50.50
7876;DHT22;69649;53.712;9.680;2023-05-09T08:06:36;16.20;49.90
7876;DHT22;69649;53.712;9.680;2023-05-09T08:09:03;16.10;50.20
7876;DHT22;69649;53.712;9.680;2023-05-09T08:11:34;16.20;50.10
7876;DHT22;69649;53.712;9.680;2023-05-09T08:14:00;16.40;50.40
7876;DHT22;69649;53.712;9.680;2023-05-09T08:16:26;16.70;50.30
7876;DHT22;69649;53.712;9.680;2023-05-09T08:18:52;16.90;49.50
7876;DHT22;69649;53.712;9.680;2023-05-09T08:21:20;16.70;49.60
7876;DHT22;69649;53.712;9.680;2023-05-09T08:23:46;16.80;49.60
7876;DHT22;69649;53.712;9.680;2023-05-09T08:26:12;16.80;49.70
7876;DHT22;69649;53.712;9.680;2023-05-09T08:28:38;16.80;49.70
7876;DHT22;69649;53.712;9.680;2023-05-09T08:31:03;16.80;49.50
7876;DHT22;69649;53.712;9.680;2023-05-09T08:33:29;16.70;49.80
7876;DHT22;69649;53.712;9.680;2023-05-09T08:35:55;16.80;49.70
7876;DHT22;69649;53.712;9.680;2023-05-09T08:38:21;16.70;50.10
7876;DHT22;69649;53.712;9.680;2023-05-09T08:40:47;16.70;50.20
7876;DHT22;69649;53.712;9.680;2023-05-09T08:43:15;16.60;50.00
7876;DHT22;69649;53.712;9.680;2023-05-09T08:45:47;16.70;50.50
7876;DHT22;69649;53.712;9.680;2023-05-09T08:48:17;17.00;49.90
7876;DHT22;69649;53.712;9.680;2023-05-09T08:50:43;17.30;49.10
7876;DHT22;69649;53.712;9.680;2023-05-09T08:53:10;17.50;49.10
7876;DHT22;69649;53.712;9.680;2023-05-09T08:55:37;17.80;48.80
7876;DHT22;69649;53.712;9.680;2023-05-09T08:58:03;17.80;48.60
7876;DHT22;69649;53.712;9.680;2023-05-09T09:00:30;18.00;48.30
7876;DHT22;69649;53.712;9.680;2023-05-09T09:03:00;18.10;48.50
7876;DHT22;69649;53.712;9.680;2023-05-09T09:05:27;18.10;48.20
7876;DHT22;69649;53.712;9.680;2023-05-09T09:07:56;18.20;48.30
7876;DHT22;69649;53.712;9.680;2023-05-09T09:10:24;18.30;48.40
7876;DHT22;69649;53.712;9.680;2023-05-09T09:12:55;18.40;48.20
7876;DHT22;69649;53.712;9.680;2023-05-09T09:15:25;18.60;47.90
7876;DHT22;69649;53.712;9.680;2023-05-09T09:17:53;18.80;47.90
7876;DHT22;69649;53.712;9.680;2023-05-09T09:20:21;18.90;47.50
7876;DHT22;69649;53.712;9.680;2023-05-09T09:22:48;18.90;47.20
7876;DHT22;69649;53.712;9.680;2023-05-09T09:25:16;19.10;47.20
7876;DHT22;69649;53.712;9.680;2023-05-09T09:27:41;19.00;47.50
7876;DHT22;69649;53.712;9.680;2023-05-09T09:30:11;19.30;47.30
7876;DHT22;69649;53.712;9.680;2023-05-09T09:32:37;19.40;47.20
7876;DHT22;69649;53.712;9.680;2023-05-09T09:35:09;19.40;46.70
7876;DHT22;69649;53.712;9.680;2023-05-09T09:37:36;19.50;46.80
7876;DHT22;69649;53.712;9.680;2023-05-09T09:40:06;19.70;46.30
7876;DHT22;69649;53.712;9.680;2023-05-09T09:42:50;19.90;46.40
7876;DHT22;69649;53.712;9.680;2023-05-09T09:45:14;20.00;46.10
7876;DHT22;69649;53.712;9.680;2023-05-09T09:47:42;20.20;45.70
7876;DHT22;69649;53.712;9.680;2023-05-09T09:50:15;20.40;45.30
7876;DHT22;69649;53.712;9.680;2023-05-09T09:52:48;20.50;45.30
7876;DHT22;69649;53.712;9.680;2023-05-09T09:55:11;20.50;45.20
7876;DHT22;69649;53.712;9.680;2023-05-09T09:57:37;20.60;44.90
7876;DHT22;69649;53.712;9.680;2023-05-09T10:00:05;20.50;44.60
7876;DHT22;69649;53.712;9.680;2023-05-09T10:02:31;20.60;44.50
7876;DHT22;69649;53.712;9.680;2023-05-09T10:05:05;20.80;43.70
7876;DHT22;69649;53.712;9.680;2023-05-09T10:07:34;21.10;43.50
7876;DHT22;69649;53.712;9.680;2023-05-09T10:10:04;21.40;43.70
7876;DHT22;69649;53.712;9.680;2023-05-09T10:12:32;21.40;43.30
7876;DHT22;69649;53.712;9.680;2023-05-09T10:15:02;21.20;43.50
7876;DHT22;69649;53.712;9.680;2023-05-09T10:17:28;21.40;44.00
7876;DHT22;69649;53.712;9.680;2023-05-09T10:20:00;21.70;43.00
7876;DHT22;69649;53.712;9.680;2023-05-09T10:22:27;21.90;42.70
7876;DHT22;69649;53.712;9.680;2023-05-09T10:25:04;21.90;42.70
7876;DHT22;69649;53.712;9.680;2023-05-09T10:27:36;21.70;42.90
7876;DHT22;69649;53.712;9.680;2023-05-09T10:30:08;21.90;43.00
7876;DHT22;69649;53.712;9.680;2023-05-09T10:32:53;21.90;43.10
7876;DHT22;69649;53.712;9.680;2023-05-09T10:35:43;22.10;42.60
7876;DHT22;69649;53.712;9.680;2023-05-09T10:37:55;21.90;42.70
7876;DHT22;69649;53.712;9.680;2023-05-09T10:40:22;22.10;42.40
7876;DHT22;69649;53.712;9.680;2023-05-09T10:42:48;22.30;42.70
7876;DHT22;69649;53.712;9.680;2023-05-09T10:45:14;22.30;42.40
7876;DHT22;69649;53.712;9.680;2023-05-09T10:47:41;22.30;42.20
7876;DHT22;69649;53.712;9.680;2023-05-09T10:50:09;22.30;42.20
7876;DHT22;69649;53.712;9.680;2023-05-09T10:58:31;21.80;42.00
7876;DHT22;69649;53.712;9.680;2023-05-09T11:01:05;21.80;42.30
7876;DHT22;69649;53.712;9.680;2023-05-09T11:03:54;21.60;42.50
7876;DHT22;69649;53.712;9.680;2023-05-09T11:06:39;21.70;42.10
7876;DHT22;69649;53.712;9.680;2023-05-09T11:09:30;21.70;41.80
7876;DHT22;69649;53.712;9.680;2023-05-09T11:12:09;22.00;41.50
7876;DHT22;69649;53.712;9.680;2023-05-09T11:14:48;21.90;41.60
7876;DHT22;69649;53.712;9.680;2023-05-09T11:22:27;22.90;41.00
7876;DHT22;69649;53.712;9.680;2023-05-09T11:25:06;23.10;41.60
7876;DHT22;69649;53.712;9.680;2023-05-09T11:27:45;23.10;40.50
7876;DHT22;69649;53.712;9.680;2023-05-09T11:30:17;23.20;40.30
7876;DHT22;69649;53.712;9.680;2023-05-09T11:32:51;23.10;40.20
7876;DHT22;69649;53.712;9.680;2023-05-09T11:35:19;23.00;40.60
7876;DHT22;69649;53.712;9.680;2023-05-09T11:38:02;22.90;40.70
7876;DHT22;69649;53.712;9.680;2023-05-09T11:40:30;23.00;40.50
7876;DHT22;69649;53.712;9.680;2023-05-09T11:42:57;23.10;39.90
7876;DHT22;69649;53.712;9.680;2023-05-09T11:45:24;23.20;39.70
7876;DHT22;69649;53.712;9.680;2023-05-09T11:47:51;23.20;39.80
7876;DHT22;69649;53.712;9.680;2023-05-09T11:50:19;23.40;39.50
7876;DHT22;69649;53.712;9.680;2023-05-09T11:52:47;23.30;39.60
7876;DHT22;69649;53.712;9.680;2023-05-09T11:55:14;23.20;39.70
7876;DHT22;69649;53.712;9.680;2023-05-09T11:57:43;23.10;39.10
7876;DHT22;69649;53.712;9.680;2023-05-09T12:00:09;23.30;39.90
7876;DHT22;69649;53.712;9.680;2023-05-09T12:02:36;23.40;39.20
7876;DHT22;69649;53.712;9.680;2023-05-09T12:05:07;23.70;39.20
7876;DHT22;69649;53.712;9.680;2023-05-09T12:07:35;23.80;38.60
7876;DHT22;69649;53.712;9.680;2023-05-09T12:10:04;23.50;38.50
7876;DHT22;69649;53.712;9.680;2023-05-09T12:12:33;23.20;39.00
7876;DHT22;69649;53.712;9.680;2023-05-09T12:15:06;23.40;39.10
7876;DHT22;69649;53.712;9.680;2023-05-09T12:17:33;23.60;38.60
7876;DHT22;69649;53.712;9.680;2023-05-09T12:19:59;23.50;38.80
7876;DHT22;69649;53.712;9.680;2023-05-09T12:22:30;23.50;38.80
7876;DHT22;69649;53.712;9.680;2023-05-09T12:24:59;23.50;38.90
7876;DHT22;69649;53.712;9.680;2023-05-09T12:27:26;23.60;39.00
7876;DHT22;69649;53.712;9.680;2023-05-09T12:29:53;23.70;38.70
7876;DHT22;69649;53.712;9.680;2023-05-09T12:32:20;23.70;38.70
7876;DHT22;69649;53.712;9.680;2023-05-09T12:34:46;23.80;38.60
7876;DHT22;69649;53.712;9.680;2023-05-09T12:37:17;23.60;39.40
7876;DHT22;69649;53.712;9.680;2023-05-09T12:39:58;23.80;38.60
7876;DHT22;69649;53.712;9.680;2023-05-09T12:42:12;23.80;38.80
7876;DHT22;69649;53.712;9.680;2023-05-09T12:44:38;24.00;38.60
7876;DHT22;69649;53.712;9.680;2023-05-09T12:47:04;24.00;39.00
7876;DHT22;69649;53.712;9.680;2023-05-09T12:49:30;23.90;38.50
7876;DHT22;69649;53.712;9.680;2023-05-09T12:51:58;23.80;39.00
7876;DHT22;69649;53.712;9.680;2023-05-09T12:54:26;24.00;39.00
7876;DHT22;69649;53.712;9.680;2023-05-09T12:56:54;24.20;38.60
7876;DHT22;69649;53.712;9.680;2023-05-09T12:59:23;24.40;38.60
7876;DHT22;69649;53.712;9.680;2023-05-09T13:01:57;24.40;38.30
7876;DHT22;69649;53.712;9.680;2023-05-09T13:04:26;24.20;38.80
7876;DHT22;69649;53.712;9.680;2023-05-09T13:06:58;24.20;38.60
7876;DHT22;69649;53.712;9.680;2023-05-09T13:09:23;24.00;38.30
7876;DHT22;69649;53.712;9.680;2023-05-09T13:11:50;24.00;38.80
7876;DHT22;69649;53.712;9.680;2023-05-09T13:14:16;24.00;38.40
7876;DHT22;69649;53.712;9.680;2023-05-09T13:16:43;24.10;38.40
7876;DHT22;69649;53.712;9.680;2023-05-09T13:19:09;24.00;38.70
7876;DHT22;69649;53.712;9.680;2023-05-09T13:21:35;24.00;38.50
7876;DHT22;69649;53.712;9.680;2023-05-09T13:24:02;24.00;38.50
7876;DHT22;69649;53.712;9.680;2023-05-09T13:26:28;24.00;38.40
7876;DHT22;69649;53.712;9.680;2023-05-09T13:28:54;23.80;38.50
7876;DHT22;69649;53.712;9.680;2023-05-09T13:31:20;24.20;39.40
7876;DHT22;69649;53.712;9.680;2023-05-09T13:33:47;24.70;38.00
7876;DHT22;69649;53.712;9.680;2023-05-09T13:36:13;24.90;37.70
7876;DHT22;69649;53.712;9.680;2023-05-09T13:38:39;24.70;38.00
7876;DHT22;69649;53.712;9.680;2023-05-09T13:41:05;24.50;37.80
7876;DHT22;69649;53.712;9.680;2023-05-09T13:43:31;24.80;37.80
7876;DHT22;69649;53.712;9.680;2023-05-09T13:45:57;24.80;37.70
7876;DHT22;69649;53.712;9.680;2023-05-09T13:48:23;24.80;37.30
7876;DHT22;69649;53.712;9.680;2023-05-09T13:50:49;24.80;37.50
7876;DHT22;69649;53.712;9.680;2023-05-09T13:53:15;24.60;38.10
7876;DHT22;69649;53.712;9.680;2023-05-09T13:55:41;24.60;37.60
7876;DHT22;69649;53.712;9.680;2023-05-09T13:58:07;24.70;37.90
7876;DHT22;69649;53.712;9.680;2023-05-09T14:00:33;24.50;38.00
7876;DHT22;69649;53.712;9.680;2023-05-09T14:03:00;24.40;38.40
7876;DHT22;69649;53.712;9.680;2023-05-09T14:05:27;24.70;38.30
7876;DHT22;69649;53.712;9.680;2023-05-09T14:07:53;25.10;37.60
7876;DHT22;69649;53.712;9.680;2023-05-09T14:10:19;25.20;37.40
7876;DHT22;69649;53.712;9.680;2023-05-09T14:12:45;25.10;37.70
7876;DHT22;69649;53.712;9.680;2023-05-09T14:15:12;25.30;37.20
7876;DHT22;69649;53.712;9.680;2023-05-09T14:17:38;25.40;37.00
7876;DHT22;69649;53.712;9.680;2023-05-09T14:20:05;25.80;36.60
7876;DHT22;69649;53.712;9.680;2023-05-09T14:22:31;25.60;37.30
7876;DHT22;69649;53.712;9.680;2023-05-09T14:24:57;25.60;37.00
7876;DHT22;69649;53.712;9.680;2023-05-09T14:27:23;25.50;37.20
7876;DHT22;69649;53.712;9.680;2023-05-09T14:29:49;25.40;37.00
7876;DHT22;69649;53.712;9.680;2023-05-09T14:32:15;25.00;37.70
7876;DHT22;69649;53.712;9.680;2023-05-09T14:34:41;25.00;36.80
7876;DHT22;69649;53.712;9.680;2023-05-09T14:37:07;25.00;36.50
7876;DHT22;69649;53.712;9.680;2023-05-09T14:39:35;25.20;36.70
7876;DHT22;69649;53.712;9.680;2023-05-09T14:42:01;25.90;36.60
7876;DHT22;69649;53.712;9.680;2023-05-09T14:44:27;26.00;36.40
7876;DHT22;69649;53.712;9.680;2023-05-09T14:46:53;26.50;36.30
7876;DHT22;69649;53.712;9.680;2023-05-09T14:49:19;26.70;36.10
7876;DHT22;69649;53.712;9.680;2023-05-09T14:51:45;26.80;36.20
7876;DHT22;69649;53.712;9.680;2023-05-09T14:54:11;27.50;36.10
7876;DHT22;69649;53.712;9.680;2023-05-09T14:56:37;27.50;35.50
7876;DHT22;69649;53.712;9.680;2023-05-09T14:59:03;27.30;35.40
7876;DHT22;69649;53.712;9.680;2023-05-09T15:01:29;27.90;35.50
7876;DHT22;69649;53.712;9.680;2023-05-09T15:03:55;27.50;35.00
7876;DHT22;69649;53.712;9.680;2023-05-09T15:06:21;27.20;35.20
7876;DHT22;69649;53.712;9.680;2023-05-09T15:08:47;27.20;35.20
7876;DHT22;69649;53.712;9.680;2023-05-09T15:11:13;27.40;35.30
7876;DHT22;69649;53.712;9.680;2023-05-09T15:13:39;27.10;35.20
7876;DHT22;69649;53.712;9.680;2023-05-09T15:16:05;27.80;35.10
7876;DHT22;69649;53.712;9.680;2023-05-09T15:18:30;28.50;34.80
7876;DHT22;69649;53.712;9.680;2023-05-09T15:20:58;29.00;34.50
7876;DHT22;69649;53.712;9.680;2023-05-09T15:23:23;28.90;34.70
7876;DHT22;69649;53.712;9.680;2023-05-09T15:25:49;27.90;35.20
7876;DHT22;69649;53.712;9.680;2023-05-09T15:28:15;27.50;35.00
7876;DHT22;69649;53.712;9.680;2023-05-09T15:30:41;26.60;35.90
7876;DHT22;69649;53.712;9.680;2023-05-09T15:33:07;27.00;36.10
7876;DHT22;69649;53.712;9.680;2023-05-09T15:35:33;27.90;34.70
7876;DHT22;69649;53.712;9.680;2023-05-09T15:37:58;27.30;35.00
7876;DHT22;69649;53.712;9.680;2023-05-09T15:40:24;26.90;35.40
7876;DHT22;69649;53.712;9.680;2023-05-09T15:42:50;27.90;35.00
7876;DHT22;69649;53.712;9.680;2023-05-09T15:45:16;28.10;34.80
7876;DHT22;69649;53.712;9.680;2023-05-09T15:47:42;28.00;34.30
7876;DHT22;69649;53.712;9.680;2023-05-09T15:50:08;28.50;34.50
7876;DHT22;69649;53.712;9.680;2023-05-09T15:52:34;28.80;34.30
7876;DHT22;69649;53.712;9.680;2023-05-09T15:55:00;28.70;34.30
7876;DHT22;69649;53.712;9.680;2023-05-09T15:57:26;29.10;33.80
7876;DHT22;69649;53.712;9.680;2023-05-09T15:59:52;29.20;34.00
7876;DHT22;69649;53.712;9.680;2023-05-09T16:02:20;28.50;34.00
7876;DHT22;69649;53.712;9.680;2023-05-09T16:04:46;27.70;34.10
7876;DHT22;69649;53.712;9.680;2023-05-09T16:07:12;27.40;34.40
7876;DHT22;69649;53.712;9.680;2023-05-09T16:09:38;26.50;34.80